Anthony, KS

5:20 AM CDT on May 23, 2015 (GMT -0500)
Anthony Medical Center | | Change Station
CLOSE
Current Station
Personal Weather Station
Location: Anthony, KS
Elevation: 1355 ft
Nearby Weather Stations

Elev 1355 ft 37.16 °N, 98.02 °W | Updated 10 seconds ago

Overcast
Overcast
55.3 °F
Feels Like 55.3 °F
N
2.0
Wind Variable Wind from SE
Gusts 3.0 mph

Today
High -- | Low -- °F
--% Chance of Precip.
Yesterday
High -- | Low -- °F
Precip. -- in
6:18 AM 8:40 PM
Waxing Crescent, 29% visible
Pressure 30.14 in
Visibility 3.0 miles
Clouds Overcast 400 ft
Dew Point 54 °F
Humidity 97%
Rainfall 0.00 in
Snow Depth Not available.
UV 0 out of 12
Pollen 5.70 out of 12
Air Quality Not available.
Flu Activity No Activity
METAR KICT 230953Z 13008KT 3SM BR OVC004 13/13 A3015 RMK AO2 SLP205 T01330128

More Conditions Fewer Conditions

Pressure 30.14 in
Visibility 3.0 miles
Clouds Overcast 400 ft
Dew Point 54 °F
Humidity 97%
Rainfall 0.00 in
Snow Depth Not available.
UV 0 out of 12
Pollen 5.70 out of 12
Air Quality Not available.
Flu Activity No Activity
METAR KICT 230953Z 13008KT 3SM BR OVC004 13/13 A3015 RMK AO2 SLP205 T01330128

More Conditions Fewer Conditions

10-Day Weather Forecast

Almanac

Astronomy

May. 23, 2015 Rise Set
Actual Time
Civil Twilight
Nautical Twilight
Astronomical Twilight
Moon
Length of Visible Light
Length of Day
Tomorrow will be .
, % of the Moon is Illuminated

Today's Extremes

State Highs State Lows

Community

WunderPhotos

Upload Photos

1,823,408 photos uploaded!

WunderBlogs® & News

Nearby

Air Quality

  Air Quality AQ Index Pollutant
Not available.

Snow Depth

Station Depth Elevation

Earthquake Activity

City Distance Mag. Time & Date
Minimum magnitude displayed is 2.5.

Coastal Water Temperatures

Place Temperature

Stations

Nearby Weather Stations

Station Location Temp. Windchill Dew Point Humidity Wind Precip. Elev Updated Type